Nearby METAR Reports

 

K1V6 - Canon City, Colorado, USA
Distance from station: NE 34mi, 55km
Updated: 09/17/2021 6:55am MDT
Clear
Clear
 Wind from WNW
Wind: WNW 13 mph , 20 km/h
Temperature: 63°F , 17°C
Dew Point: 39°F , 4°C
Humidity: 42%
Barometer: 30.19 inHg , 1022.4 hPa
Clouds: Clear
Visibility: 10 miles , 16 km
2021/09/17 12:55 K1V6 171255Z AUTO 29011KT 10SM CLR 17/04 A3019 RMK AO2
K04V - Saguache Muni, Colorado, USA
Distance from station: W 35mi, 56km
Updated: 09/10/2021 10:09am MDT
NOT Current
Clear
Clear
 Wind from SSE
Wind: SSE 3 mph , 6 km/h
Temperature: 68°F , 20°C
Dew Point: 30°F , -1°C
Humidity: 24%
Barometer: 30.50 inHg , 1032.8 hPa
Clouds: Clear
Visibility: 10 miles , 16 km
2021/09/10 16:09 K04V 101609Z AUTO 16003KT 10SM CLR 20/M01 A3050 RMK AO2 PWINO
 
KANK - Salida, Colorado, USA
Distance from station: NW 43mi, 69km
Updated: 09/17/2021 6:55am MDT
Clear
Clear
 Wind from NW
Wind: NW 3 mph , 6 km/h
Temperature: 48°F , 9°C
Dew Point: 25°F , -4°C
Humidity: 40%
Barometer: 30.42 inHg , 1030.1 hPa
Clouds: Clear
Visibility: 10 miles , 16 km
2021/09/17 12:55 KANK 171255Z AUTO 32003KT 10SM CLR 09/M04 A3042 RMK AO1 T00861044
KVTP - La Veta Pass, Colorado, USA
Distance from station: SSE 44mi, 71km
Updated: 09/17/2021 6:55am MDT
Clear
Clear
 Wind from ESE
Wind: ESE 5 mph , 7 km/h
Temperature: 45°F , 7°C
Wind Chill: 42°F , 6°C
Dew Point: 21°F , -6°C
Humidity: 39%
Barometer: 30.48 inHg , 1032.2 hPa
Clouds: Clear
Visibility: 10 miles , 16 km
2021/09/17 12:55 KVTP 171255Z AUTO 11004KT 10SM CLR 07/M06 A3048 RMK AO2
 
KALS - Alamosa, Colorado, USA
Distance from station: SSW 48mi, 77km
Updated: 09/17/2021 6:52am MDT
Clear
Clear
 Wind from calm
Wind: Calm
Temperature: 30°F , -1°C
Dew Point: 21°F , -6°C
Humidity: 69%
Barometer: 30.33 inHg , 1027.1 hPa
Clouds: Clear
Visibility: 10 miles , 16 km
2021/09/17 12:52 KALS 171252Z AUTO 00000KT 10SM CLR M01/M06 A3033 RMK AO2 SLP213 T10061061